Time;durP1;ratioP1;P1;durP2;ratioP2;P2;SDS_P1;SDS_P2;PMS_P1;PMS_P2;Temp;Humidity;BMP_temperature;BMP_pressure;BME280_temperature;BME280_humidity;BME280_pressure;Samples;Min_cycle;Max_cycle;Signal;HPM_P1;HPM_P2
2022/07/11 00:01:35;;;;;;;8.50;2.57;;;;;;;11.22;91.78;98933.05;2173863;82;20905;-80
2022/07/11 00:04:36;;;;;;;6.50;2.13;;;;;;;11.25;91.79;98936.13;2173641;82;21325;-79
2022/07/11 00:07:36;;;;;;;5.93;2.43;;;;;;;11.29;91.60;98940.13;2173470;82;20933;-79
2022/07/11 00:10:37;;;;;;;10.17;2.20;;;;;;;11.31;91.75;98947.55;2173766;82;20936;-80
2022/07/11 00:13:37;;;;;;;7.80;2.40;;;;;;;11.32;91.39;98951.05;2173658;82;20928;-79
2022/07/11 00:16:37;;;;;;;6.13;2.10;;;;;;;11.34;91.69;98948.89;2173270;82;20956;-79
2022/07/11 00:19:38;;;;;;;6.10;2.13;;;;;;;11.34;91.58;98946.28;2173263;82;20968;-80
2022/07/11 00:22:38;;;;;;;8.13;2.30;;;;;;;11.34;91.62;98944.97;2173273;82;20920;-79
2022/07/11 00:25:39;;;;;;;3.03;2.03;;;;;;;11.32;92.00;98944.52;2173078;82;20889;-79
2022/07/11 00:28:39;;;;;;;3.13;2.30;;;;;;;11.31;91.86;98950.17;2173422;82;20918;-80
2022/07/11 00:31:39;;;;;;;6.47;2.40;;;;;;;11.30;91.74;98946.23;2173435;82;21336;-79
2022/07/11 00:34:40;;;;;;;5.67;2.43;;;;;;;11.31;91.79;98942.77;2173547;82;20932;-79
2022/07/11 00:37:40;;;;;;;6.03;2.63;;;;;;;11.33;91.96;98951.49;2173820;82;20870;-80
2022/07/11 00:40:41;;;;;;;5.77;2.43;;;;;;;11.30;92.29;98956.25;2173261;82;21400;-78
2022/07/11 00:43:41;;;;;;;4.80;2.03;;;;;;;11.27;91.89;98948.38;2173508;82;20976;-79
2022/07/11 00:46:41;;;;;;;6.27;2.40;;;;;;;11.26;91.93;98944.41;2173628;82;20944;-79
2022/07/11 00:49:42;;;;;;;4.43;2.40;;;;;;;11.24;91.96;98944.40;2173587;82;20922;-79
2022/07/11 00:52:42;;;;;;;8.43;2.57;;;;;;;11.22;92.54;98950.04;2173422;82;20941;-79
2022/07/11 00:55:43;;;;;;;3.57;2.27;;;;;;;11.18;92.20;98945.20;2173624;82;20901;-79
2022/07/11 00:58:43;;;;;;;5.07;2.33;;;;;;;11.16;91.86;98938.21;2173237;81;20985;-79
2022/07/11 01:01:43;;;;;;;4.30;1.97;;;;;;;11.12;91.54;98940.34;2173056;82;20948;-78
2022/07/11 01:04:44;;;;;;;6.57;2.20;;;;;;;11.10;91.79;98929.88;2172870;82;20905;-78
2022/07/11 01:07:44;;;;;;;5.50;1.90;;;;;;;11.12;91.60;98933.81;2172713;82;20902;-79
2022/07/11 01:10:49;;;;;;;4.70;2.20;;;;;;;11.10;91.90;98931.19;2172622;82;20985;-79
2022/07/11 01:13:47;;;;;;;8.77;2.40;;;;;;;11.06;91.70;98944.20;2161320;82;20913;-79
2022/07/11 01:16:47;;;;;;;4.87;2.17;;;;;;;11.04;91.81;98939.38;2173315;82;21268;-79
2022/07/11 01:19:48;;;;;;;4.17;2.20;;;;;;;11.03;91.67;98946.77;2172670;82;20905;-79
2022/07/11 01:22:51;;;;;;;6.33;2.20;;;;;;;10.99;91.81;98951.09;2172671;82;20921;-79
2022/07/11 01:25:48;;;;;;;5.80;2.37;;;;;;;10.96;91.88;98944.95;2172486;82;21352;-79
2022/07/11 01:28:49;;;;;;;2.40;2.17;;;;;;;10.94;91.90;98946.66;2172458;82;20894;-80
2022/07/11 01:31:49;;;;;;;6.20;2.17;;;;;;;10.92;91.86;98947.08;2172615;82;20890;-80
2022/07/11 01:34:50;;;;;;;6.47;2.50;;;;;;;10.90;91.79;98948.80;2172381;82;21339;-80
2022/07/11 01:37:50;;;;;;;3.47;2.50;;;;;;;10.85;91.84;98945.70;2172580;82;20878;-79
2022/07/11 01:40:50;;;;;;;3.40;2.47;;;;;;;10.81;91.84;98937.80;2172488;82;21000;-79
2022/07/11 01:43:51;;;;;;;4.50;2.43;;;;;;;10.78;91.87;98945.60;2172506;82;21312;-79
2022/07/11 01:46:52;;;;;;;5.10;2.47;;;;;;;10.75;91.76;98936.00;2172213;82;21076;-80
2022/07/11 01:49:52;;;;;;;9.43;2.33;;;;;;;10.75;92.00;98936.00;2173013;82;20952;-80
2022/07/11 01:52:53;;;;;;;5.60;2.40;;;;;;;10.76;91.92;98937.75;2173717;82;20941;-79
2022/07/11 01:55:53;;;;;;;4.50;2.40;;;;;;;10.72;91.93;98931.16;2173409;82;20953;-79
2022/07/11 01:58:54;;;;;;;4.77;2.47;;;;;;;10.70;91.95;98937.67;2184156;81;21300;-81
2022/07/11 02:01:54;;;;;;;5.57;2.67;;;;;;;10.70;92.14;98927.23;2189933;81;20917;-80
2022/07/11 02:04:54;;;;;;;7.73;2.60;;;;;;;10.71;92.07;98928.98;2190183;81;20996;-80
2022/07/11 02:08:13;;;;;;;6.40;2.70;;;;;;;10.72;92.04;98929.86;2190020;81;21308;-80
2022/07/11 02:11:13;;;;;;;5.27;2.60;;;;;;;10.73;92.14;98929.88;2189568;81;20968;-79
2022/07/11 02:14:14;;;;;;;4.33;2.43;;;;;;;10.76;92.04;98923.82;2189979;81;21018;-79
2022/07/11 02:17:14;;;;;;;8.57;5.60;;;;;;;10.79;92.11;98927.34;2190127;81;20949;-80
2022/07/11 02:20:15;;;;;;;8.60;6.73;;;;;;;10.83;92.21;98920.42;2189848;81;21265;-79
2022/07/11 02:23:16;;;;;;;13.33;8.23;;;;;;;10.84;92.27;98920.44;2189431;81;20945;-79
2022/07/11 02:26:16;;;;;;;12.13;9.30;;;;;;;10.82;92.09;98916.94;2189539;81;20957;-79
2022/07/11 02:29:22;;;;;;;4.87;3.23;;;;;;;10.84;92.33;98925.66;2189470;81;21307;-79
2022/07/11 02:32:16;;;;;;;10.07;2.73;;;;;;;10.86;92.28;98921.77;2190187;81;20892;-79
2022/07/11 02:35:17;;;;;;;7.63;2.90;;;;;;;10.83;92.08;98930.44;2190161;81;20955;-79
2022/07/11 02:38:17;;;;;;;6.10;3.10;;;;;;;10.83;92.07;98927.83;2190184;81;20885;-79
2022/07/11 02:41:18;;;;;;;4.60;2.60;;;;;;;10.80;92.09;98927.79;2190117;81;20968;-79
2022/07/11 02:44:19;;;;;;;8.20;4.50;;;;;;;10.79;91.87;98929.08;2190133;81;20943;-80
2022/07/11 02:47:18;;;;;;;12.40;5.93;;;;;;;10.81;92.02;98932.59;2190406;81;20948;-80
2022/07/11 02:50:19;;;;;;;12.87;5.50;;;;;;;10.83;91.87;98933.05;2189923;81;20941;-79
2022/07/11 02:53:19;;;;;;;12.60;7.10;;;;;;;10.88;91.84;98928.31;2190105;81;20905;-79
2022/07/11 02:56:19;;;;;;;11.07;7.00;;;;;;;10.94;91.91;98933.61;2190213;81;20965;-79
2022/07/11 02:59:21;;;;;;;10.17;5.57;;;;;;;10.93;91.73;98930.55;2190107;80;21010;-79
2022/07/11 03:02:20;;;;;;;11.73;3.70;;;;;;;10.99;92.01;98928.88;2190225;81;20944;-80
2022/07/11 03:05:21;;;;;;;7.33;3.47;;;;;;;11.05;91.83;98931.56;2190290;81;20908;-79
2022/07/11 03:08:23;;;;;;;5.90;2.60;;;;;;;11.12;91.76;98925.98;2190011;81;20995;-78
2022/07/11 03:11:23;;;;;;;9.67;2.57;;;;;;;11.20;91.83;98924.75;2190018;81;21327;-79
2022/07/11 03:14:24;;;;;;;3.10;2.30;;;;;;;11.27;91.66;98936.63;2190186;81;20904;-79
2022/07/11 03:17:24;;;;;;;6.93;2.10;;;;;;;11.31;91.68;98938.41;2190568;81;20900;-79
2022/07/11 03:20:24;;;;;;;9.20;2.50;;;;;;;11.37;91.73;98940.20;2190696;81;21296;-81
2022/07/11 03:23:25;;;;;;;5.23;2.40;;;;;;;11.42;91.65;98933.29;2190128;81;20991;-80
2022/07/11 03:26:26;;;;;;;7.33;2.30;;;;;;;11.47;91.62;98929.86;2190149;81;20925;-79
2022/07/11 03:29:26;;;;;;;5.07;2.43;;;;;;;11.52;91.31;98925.98;2189958;81;21568;-79
2022/07/11 03:32:26;;;;;;;6.35;2.17;;;;;;;11.60;91.34;98933.89;2190299;81;20936;-79
2022/07/11 03:35:41;;;;;;;3.93;1.97;;;;;;;11.66;91.17;98933.95;2190372;81;20925;-79
2022/07/11 03:38:42;;;;;;;5.07;2.33;;;;;;;11.69;91.11;98932.67;2190013;81;20917;-79
2022/07/11 03:41:42;;;;;;;7.43;2.57;;;;;;;11.71;91.02;98938.78;2189441;81;20979;-80
2022/07/11 03:44:42;;;;;;;7.53;2.10;;;;;;;11.76;90.87;98934.47;2189226;81;20940;-79
2022/07/11 03:47:43;;;;;;;4.40;2.60;;;;;;;11.79;90.81;98929.30;2189382;81;20968;-80
2022/07/11 03:50:43;;;;;;;6.90;4.43;;;;;;;11.86;90.87;98933.72;2189168;81;20983;-79
2022/07/11 03:53:44;;;;;;;7.57;3.47;;;;;;;11.92;90.81;98934.20;2189348;81;20952;-80
2022/07/11 03:56:47;;;;;;;7.33;4.77;;;;;;;11.93;90.43;98934.64;2190053;81;20909;-79
2022/07/11 03:59:48;;;;;;;8.00;5.50;;;;;;;11.98;90.52;98936.43;2189512;81;20986;-78
2022/07/11 04:02:48;;;;;;;4.58;3.37;;;;;;;12.04;90.33;98931.24;2188820;81;21827;-78
2022/07/11 04:05:48;;;;;;;5.30;3.50;;;;;;;12.05;90.11;98938.23;2189890;81;20889;-79
2022/07/11 04:08:49;;;;;;;6.47;2.72;;;;;;;12.05;90.18;98942.16;2190009;81;20963;-79
2022/07/11 04:11:49;;;;;;;7.62;5.03;;;;;;;12.07;90.19;98932.58;2188937;81;20995;-79
2022/07/11 04:14:50;;;;;;;4.77;2.47;;;;;;;12.14;90.14;98940.06;2188935;81;21304;-78
2022/07/11 04:17:50;;;;;;;8.33;2.30;;;;;;;12.18;90.05;98941.84;2188135;81;20940;-79
2022/07/11 04:20:50;;;;;;;7.97;2.62;;;;;;;12.17;89.79;98947.06;2188212;81;20917;-79
2022/07/11 04:23:51;;;;;;;6.75;3.17;;;;;;;12.20;90.30;98951.88;2187883;81;21414;-78
2022/07/11 04:26:51;;;;;;;7.03;3.05;;;;;;;12.19;90.07;98947.95;2188355;81;20929;-80
2022/07/11 04:29:52;;;;;;;9.45;3.60;;;;;;;12.21;90.22;98951.45;2189136;81;20912;-78
2022/07/11 04:32:52;;;;;;;6.12;3.17;;;;;;;12.20;90.05;98945.34;2189542;81;20979;-77
2022/07/11 04:35:52;;;;;;;10.20;3.33;;;;;;;12.28;90.22;98949.32;2189419;81;21288;-78
2022/07/11 04:38:53;;;;;;;5.90;3.25;;;;;;;12.35;90.04;98945.88;2188762;81;20920;-78
2022/07/11 04:41:53;;;;;;;8.05;2.65;;;;;;;12.44;89.79;98949.86;2188078;81;20948;-78
2022/07/11 04:44:54;;;;;;;4.42;2.12;;;;;;;12.51;89.73;98949.03;2188617;81;21356;-78
2022/07/11 04:47:54;;;;;;;7.10;2.45;;;;;;;12.54;89.70;98950.79;2188944;81;20908;-78
2022/07/11 04:50:56;;;;;;;13.95;3.22;;;;;;;12.57;89.66;98946.88;2188208;81;20987;-80
2022/07/11 04:53:56;;;;;;;6.37;2.10;;;;;;;12.62;89.57;98953.89;2188708;81;20912;-77
2022/07/11 04:56:57;;;;;;;7.37;2.58;;;;;;;12.67;89.39;98954.79;2188587;81;20936;-77
2022/07/11 04:59:57;;;;;;;5.80;2.30;;;;;;;12.74;89.25;98953.95;2174840;81;21355;-79
2022/07/11 05:02:57;;;;;;;4.25;2.37;;;;;;;12.74;88.98;98952.64;2171838;82;20890;-79
2022/07/11 05:05:58;;;;;;;11.10;2.60;;;;;;;12.79;88.96;98951.36;2171896;82;20993;-80
2022/07/11 05:09:02;;;;;;;7.60;2.62;;;;;;;12.81;88.96;98948.74;2173187;82;20893;-80
2022/07/11 05:12:02;;;;;;;10.27;2.97;;;;;;;12.91;88.79;98955.77;2173349;82;20980;-79
2022/07/11 05:15:02;;;;;;;7.28;2.45;;;;;;;13.00;88.31;98955.81;2172796;82;20952;-80
2022/07/11 05:18:02;;;;;;;8.50;3.20;;;;;;;13.14;88.09;98950.22;2172421;82;20932;-80
2022/07/11 05:21:03;;;;;;;12.58;3.27;;;;;;;13.25;87.72;98952.47;2172124;82;20953;-80
2022/07/11 05:24:03;;;;;;;6.83;2.75;;;;;;;13.48;87.56;98956.45;2172476;82;20948;-80
2022/07/11 05:27:03;;;;;;;6.35;2.25;;;;;;;13.65;86.64;98953.42;2172655;82;21328;-79
2022/07/11 05:30:04;;;;;;;5.37;2.20;;;;;;;13.79;85.34;98951.25;2173606;82;21016;-81
2022/07/11 05:33:04;;;;;;;4.95;2.45;;;;;;;13.87;85.02;98957.37;2173354;82;20952;-77
2022/07/11 05:36:05;;;;;;;6.15;2.47;;;;;;;13.99;84.57;98954.34;2172326;82;20889;-79
2022/07/11 05:39:05;;;;;;;5.75;2.40;;;;;;;14.10;84.07;98961.34;2172735;82;20917;-79
2022/07/11 05:42:05;;;;;;;7.73;2.87;;;;;;;14.23;84.11;98959.14;2172515;82;21028;-80
2022/07/11 05:45:06;;;;;;;5.17;2.30;;;;;;;14.34;83.59;98960.88;2172064;82;21004;-79
2022/07/11 05:48:06;;;;;;;9.45;2.20;;;;;;;14.49;82.91;98958.70;2171987;82;21285;-79
2022/07/11 05:51:07;;;;;;;5.30;2.10;;;;;;;14.56;81.63;98961.75;2171631;82;20929;-79
2022/07/11 05:54:07;;;;;;;4.90;2.22;;;;;;;14.58;81.53;98970.50;2170891;82;20893;-79
2022/07/11 05:57:07;;;;;;;5.58;2.12;;;;;;;14.55;80.60;98963.94;2170201;82;20878;-77
2022/07/11 06:00:08;;;;;;;6.67;2.20;;;;;;;14.64;80.70;98964.35;2170628;81;20992;-79
2022/07/11 06:03:08;;;;;;;6.53;2.45;;;;;;;14.77;80.17;98961.28;2170910;82;20996;-78
2022/07/11 06:06:10;;;;;;;10.85;2.30;;;;;;;14.90;79.25;98960.36;2170659;82;20928;-80
2022/07/11 06:09:09;;;;;;;6.42;2.12;;;;;;;14.98;79.59;98962.52;2169939;82;20980;-78
2022/07/11 06:12:10;;;;;;;3.72;1.92;;;;;;;15.07;79.21;98967.74;2170200;82;21690;-79
2022/07/11 06:15:11;;;;;;;6.35;2.10;;;;;;;15.19;78.67;98965.06;2171104;82;20897;-79
2022/07/11 06:18:10;;;;;;;5.03;1.90;;;;;;;15.33;77.63;98963.67;2171207;82;20929;-78
2022/07/11 06:21:11;;;;;;;4.95;2.10;;;;;;;15.38;77.64;98968.47;2171167;82;20940;-76
2022/07/11 06:24:11;;;;;;;5.35;2.30;;;;;;;15.58;77.73;98964.44;2171672;82;21455;-78
2022/07/11 06:27:12;;;;;;;7.55;2.52;;;;;;;15.69;77.18;98965.27;2171904;82;20929;-79
2022/07/11 06:30:12;;;;;;;4.42;1.77;;;;;;;15.68;76.02;98970.10;2171660;82;20948;-79
2022/07/11 06:33:12;;;;;;;8.90;2.10;;;;;;;15.69;75.61;98967.03;2172350;82;20909;-78
2022/07/11 06:36:13;;;;;;;5.47;1.80;;;;;;;15.64;75.30;98968.38;2171902;82;20909;-79
2022/07/11 06:39:13;;;;;;;3.25;1.60;;;;;;;15.66;75.88;98966.61;2171607;82;20953;-79
2022/07/11 06:42:14;;;;;;;5.12;1.90;;;;;;;15.62;74.52;98971.45;2171053;82;21380;-79
2022/07/11 06:45:14;;;;;;;4.08;2.10;;;;;;;15.93;75.19;98962.45;2170704;82;21364;-80
2022/07/11 06:48:15;;;;;;;5.60;1.87;;;;;;;16.36;74.18;98964.72;2170864;82;20949;-80
2022/07/11 06:51:15;;;;;;;4.87;2.20;;;;;;;16.73;72.54;98968.36;2171566;82;21340;-79
2022/07/11 06:54:15;;;;;;;7.08;2.60;;;;;;;17.15;72.23;98957.75;2171951;82;20961;-80
2022/07/11 06:57:16;;;;;;;4.95;2.12;;;;;;;17.50;70.68;98957.31;2171701;82;20928;-79
2022/07/11 07:00:17;;;;;;;5.03;2.20;;;;;;;17.81;68.87;98953.35;2183774;80;20980;-80
2022/07/11 07:03:16;;;;;;;4.90;1.92;;;;;;;17.54;68.50;98955.05;2188080;81;20955;-79
2022/07/11 07:06:17;;;;;;;6.40;1.92;;;;;;;17.58;66.57;98956.75;2188446;81;21137;-79
2022/07/11 07:09:17;;;;;;;4.90;2.08;;;;;;;17.71;68.90;98954.39;2188402;81;20948;-81
2022/07/11 07:12:18;;;;;;;3.87;1.80;;;;;;;17.99;68.79;98956.59;2187781;81;20980;-80
2022/07/11 07:15:18;;;;;;;6.25;2.50;;;;;;;18.18;66.73;98952.75;2187570;81;21013;-79
2022/07/11 07:18:19;;;;;;;4.33;2.12;;;;;;;18.21;66.31;98955.38;2188199;81;20934;-79
2022/07/11 07:21:20;;;;;;;7.08;2.52;;;;;;;18.36;66.44;98951.14;2188676;81;21403;-80
2022/07/11 07:24:19;;;;;;;6.83;2.45;;;;;;;18.51;65.15;98949.99;2187939;81;20956;-80
2022/07/11 07:27:20;;;;;;;5.20;2.05;;;;;;;18.89;63.03;98940.48;2188789;81;20964;-82
2022/07/11 07:30:20;;;;;;;7.05;2.00;;;;;;;19.07;63.41;98932.17;2188880;81;21304;-81
2022/07/11 07:33:21;;;;;;;6.45;2.10;;;;;;;19.25;60.52;98938.43;2188355;81;20920;-79
2022/07/11 07:36:21;;;;;;;6.53;2.20;;;;;;;19.56;61.68;98930.70;2189065;81;21003;-80
2022/07/11 07:39:21;;;;;;;4.35;1.90;;;;;;;19.72;59.02;98919.30;2189264;81;21590;-80
2022/07/11 07:42:22;;;;;;;4.03;1.80;;;;;;;20.04;57.88;98921.20;2188459;81;20987;-82
2022/07/11 07:45:22;;;;;;;5.67;1.80;;;;;;;20.16;56.38;98919.56;2189545;81;20936;-81
2022/07/11 07:48:23;;;;;;;5.47;1.80;;;;;;;20.06;53.93;98916.73;2189838;81;21612;-80
2022/07/11 07:51:23;;;;;;;6.08;2.35;;;;;;;19.43;55.90;98919.95;2187746;81;20912;-80
2022/07/11 07:54:23;;;;;;;5.47;1.65;;;;;;;18.86;57.21;98917.62;2186896;81;20920;-80
2022/07/11 07:57:24;;;;;;;11.97;2.00;;;;;;;18.40;57.71;98919.80;2187424;81;21329;-80
2022/07/11 08:03:43;;;;;;;6.05;2.12;;;;;;;18.66;56.67;98912.73;2170779;81;20932;-80
2022/07/11 08:06:44;;;;;;;8.78;2.37;;;;;;;19.09;56.69;98907.46;2170942;82;20940;-78
2022/07/11 08:09:44;;;;;;;9.43;1.57;;;;;;;19.58;55.55;98892.28;2171924;82;21282;-78
2022/07/11 08:12:44;;;;;;;3.20;1.52;;;;;;;20.02;55.17;98892.55;2170191;82;20969;-79
2022/07/11 08:15:45;;;;;;;4.83;1.57;;;;;;;20.46;52.46;98887.89;2171232;82;20952;-80
2022/07/11 08:18:45;;;;;;;9.88;2.27;;;;;;;20.43;48.55;98894.14;2170615;82;20917;-81
2022/07/11 08:21:46;;;;;;;5.75;1.72;;;;;;;20.67;49.45;98881.53;2171046;82;21172;-81
2022/07/11 08:24:46;;;;;;;9.03;1.82;;;;;;;20.55;50.55;98890.28;2172076;82;21001;-80
2022/07/11 08:27:46;;;;;;;3.25;1.60;;;;;;;20.45;50.94;98883.03;2171151;82;20889;-79
2022/07/11 08:30:47;;;;;;;3.77;1.22;;;;;;;19.80;50.50;98868.80;2172170;82;20917;-81
2022/07/11 08:33:47;;;;;;;5.25;1.40;;;;;;;19.52;52.44;98865.92;2172091;82;20910;-80
2022/07/11 08:36:48;;;;;;;2.85;1.32;;;;;;;19.40;51.11;98875.02;2171580;82;21005;-79
2022/07/11 08:39:48;;;;;;;7.67;1.70;;;;;;;19.00;52.39;98881.17;2171903;82;20956;-80
2022/07/11 08:42:49;;;;;;;2.95;1.15;;;;;;;18.57;53.99;98882.47;2171756;82;21028;-79
2022/07/11 08:45:49;;;;;;;2.22;1.47;;;;;;;18.17;54.36;98885.41;2171505;82;20957;-80
2022/07/11 08:48:49;;;;;;;4.00;1.82;;;;;;;17.92;56.33;98895.53;2171034;82;20909;-81
2022/07/11 08:51:50;;;;;;;9.68;2.37;;;;;;;17.77;57.00;98886.97;2170869;82;20957;-79
2022/07/11 08:54:51;;;;;;;4.80;1.37;;;;;;;18.00;57.88;98875.15;2171323;82;20917;-80
2022/07/11 08:57:50;;;;;;;3.05;1.32;;;;;;;18.42;59.25;98874.39;2170774;82;20956;-80
2022/07/11 09:00:51;;;;;;;4.90;1.27;;;;;;;18.43;57.28;98870.84;2183569;80;20972;-81
2022/07/11 09:03:51;;;;;;;3.87;1.80;;;;;;;18.58;58.04;98876.73;2188203;81;21330;-79
2022/07/11 09:06:52;;;;;;;4.25;1.60;;;;;;;19.03;57.53;98878.91;2188820;81;20935;-79
2022/07/11 09:09:52;;;;;;;4.50;1.45;;;;;;;18.98;56.05;98883.42;2188303;81;20917;-79
2022/07/11 09:12:53;;;;;;;3.80;1.95;;;;;;;18.55;56.88;98884.73;2186921;81;20995;-79
2022/07/11 09:15:53;;;;;;;1.67;0.80;;;;;;;17.89;56.34;98935.20;2187685;81;20996;-80
2022/07/11 09:18:53;;;;;;;3.50;1.02;;;;;;;16.69;60.79;98945.56;2188114;81;20975;-80
2022/07/11 09:25:31;;;;;;;6.83;1.10;;;;;;;15.09;66.66;98938.81;2188864;81;20995;-86
2022/07/11 09:28:22;;;;;;;5.22;1.25;;;;;;;14.75;68.29;98923.63;2189313;81;20960;-82
2022/07/11 09:31:22;;;;;;;2.40;1.00;;;;;;;14.80;68.92;98911.34;2188487;81;20876;-83
2022/07/11 09:34:29;;;;;;;2.95;1.35;;;;;;;15.14;69.83;98906.80;2188684;81;20928;-81
2022/07/11 09:37:29;;;;;;;4.80;2.75;;;;;;;15.48;69.92;98899.58;2188426;81;21289;-84
2022/07/11 09:40:29;;;;;;;3.35;1.40;;;;;;;15.79;70.53;98888.00;2189051;81;20916;-84
2022/07/11 09:43:30;;;;;;;7.03;1.40;;;;;;;16.27;69.52;98887.11;2189510;81;20980;-83
2022/07/11 09:46:30;;;;;;;3.30;2.25;;;;;;;16.75;68.61;98889.70;2188905;81;20893;-81
2022/07/11 09:49:31;;;;;;;1.98;1.20;;;;;;;17.31;69.31;98876.20;2188163;81;21343;-81
2022/07/11 09:52:31;;;;;;;2.47;1.20;;;;;;;17.61;65.71;98875.33;2188505;81;20948;-83
2022/07/11 09:55:31;;;;;;;4.78;1.47;;;;;;;17.81;64.85;98874.59;2188949;81;21655;-81
2022/07/11 09:58:32;;;;;;;2.67;1.30;;;;;;;18.16;63.39;98863.41;2188183;81;21320;-81
2022/07/11 10:01:32;;;;;;;5.72;2.25;;;;;;;18.43;61.85;98862.92;2188424;81;21355;-82
2022/07/11 10:04:33;;;;;;;2.45;1.37;;;;;;;18.82;61.74;98868.33;2188950;81;20936;-86
2022/07/11 10:07:33;;;;;;;2.17;1.22;;;;;;;19.01;59.75;98864.84;2188732;81;20925;-84
2022/07/11 10:10:33;;;;;;;1.95;1.10;;;;;;;18.85;60.37;98870.91;2188051;81;21352;-83
2022/07/11 10:13:34;;;;;;;3.70;1.07;;;;;;;18.35;56.92;98924.30;2187538;81;20972;-83
2022/07/11 10:16:34;;;;;;;1.00;0.65;;;;;;;17.05;56.08;98941.63;2188479;81;20916;-82
2022/07/11 10:19:35;;;;;;;4.67;2.90;;;;;;;15.94;58.76;98948.86;2187981;81;20971;-82
2022/07/11 10:22:35;;;;;;;1.47;1.30;;;;;;;15.33;61.15;98952.28;2189104;81;20901;-82
2022/07/11 10:25:35;;;;;;;2.90;0.80;;;;;;;15.01;63.19;98957.25;2187692;81;20928;-82
2022/07/11 10:28:36;;;;;;;1.55;0.50;;;;;;;14.66;64.44;98967.41;2188231;81;20943;-82
2022/07/11 10:31:36;;;;;;;1.00;0.62;;;;;;;14.35;67.25;98961.31;2188416;81;20932;-79
2022/07/11 10:34:37;;;;;;;2.87;1.90;;;;;;;14.05;69.23;98967.03;2188611;81;20909;-83
2022/07/11 10:37:37;;;;;;;6.12;1.62;;;;;;;13.79;71.06;98969.17;2188784;81;20917;-81
2022/07/11 10:40:38;;;;;;;1.67;1.57;;;;;;;13.67;73.13;98965.22;2187567;81;20956;-82
2022/07/11 10:43:39;;;;;;;1.27;0.72;;;;;;;13.62;73.00;98970.47;2188307;81;20979;-84
2022/07/11 10:46:38;;;;;;;1.95;1.00;;;;;;;13.57;74.15;98966.08;2188522;81;21327;-85
2022/07/11 10:49:39;;;;;;;2.90;0.72;;;;;;;13.60;74.83;98964.78;2188428;81;20916;-85
2022/07/11 10:52:39;;;;;;;2.10;0.70;;;;;;;13.73;74.80;98960.42;2188987;81;20916;-83
2022/07/11 10:55:40;;;;;;;1.85;1.10;;;;;;;13.91;75.11;98955.22;2188679;81;20908;-84
2022/07/11 10:58:40;;;;;;;6.35;0.70;;;;;;;14.04;74.75;98953.03;2188287;81;20948;-85
2022/07/11 11:01:40;;;;;;;1.60;0.90;;;;;;;14.20;75.03;98949.52;2188084;81;21012;-84
2022/07/11 11:04:41;;;;;;;0.80;0.80;;;;;;;14.29;74.15;98956.08;2188395;81;20956;-87
2022/07/11 11:07:41;;;;;;;4.28;1.90;;;;;;;14.44;74.52;98961.77;2188569;81;20955;-84
2022/07/11 11:10:42;;;;;;;3.87;1.67;;;;;;;14.62;74.14;98956.91;2189662;81;20888;-82
2022/07/11 11:13:42;;;;;;;6.08;1.47;;;;;;;14.72;73.26;98954.70;2189334;81;21019;-87
2022/07/11 11:16:42;;;;;;;2.45;1.02;;;;;;;15.01;72.71;98954.63;2189096;81;20920;-86
2022/07/11 11:19:43;;;;;;;2.98;1.57;;;;;;;15.42;72.94;98951.78;2189471;81;20932;-84
2022/07/11 11:22:43;;;;;;;1.12;0.88;;;;;;;15.61;72.74;98960.50;2189973;81;20912;-84
2022/07/11 11:25:44;;;;;;;1.40;0.70;;;;;;;15.79;71.35;98951.61;2189377;81;21071;-84
2022/07/11 11:28:44;;;;;;;4.10;0.70;;;;;;;16.32;71.17;98947.20;2189716;81;20924;-80
2022/07/11 11:31:44;;;;;;;3.02;0.85;;;;;;;16.85;69.53;98945.82;2187929;81;20960;-81
2022/07/11 11:34:48;;;;;;;1.50;1.17;;;;;;;17.27;67.89;98943.08;2187958;81;20888;-84
2022/07/11 11:37:48;;;;;;;1.98;1.60;;;;;;;17.41;67.36;98945.56;2188540;81;21308;-84
2022/07/11 11:40:48;;;;;;;2.08;1.10;;;;;;;17.46;67.71;98942.41;2188642;81;20952;-83
2022/07/11 11:43:49;;;;;;;1.60;1.17;;;;;;;17.54;66.84;98949.77;2188163;81;20996;-84
2022/07/11 11:46:49;;;;;;;3.00;1.10;;;;;;;17.61;66.24;98931.63;2187995;81;21392;-84
2022/07/11 11:49:50;;;;;;;1.98;1.10;;;;;;;17.58;67.17;98929.04;2187653;81;20928;-83
2022/07/11 11:52:50;;;;;;;1.55;1.07;;;;;;;17.85;66.77;98929.09;2187733;81;20936;-85
2022/07/11 11:55:50;;;;;;;1.05;0.95;;;;;;;18.03;67.09;98926.59;2187960;81;21383;-83
2022/07/11 11:58:51;;;;;;;1.90;1.10;;;;;;;18.36;64.10;98927.36;2187735;81;20901;-83
2022/07/11 12:01:51;;;;;;;2.17;0.90;;;;;;;18.54;63.38;98906.33;2187710;80;20997;-83
2022/07/11 12:04:52;;;;;;;1.77;1.00;;;;;;;18.36;62.28;98900.94;2186669;81;20948;-82
2022/07/11 12:07:52;;;;;;;4.35;1.07;;;;;;;18.09;61.80;98904.04;2188268;81;20972;-84
2022/07/11 12:10:52;;;;;;;3.50;1.42;;;;;;;18.04;62.89;98897.97;2188499;81;20913;-84
2022/07/11 12:13:53;;;;;;;4.90;1.05;;;;;;;18.02;63.78;98903.27;2188581;81;21051;-84
2022/07/11 12:16:53;;;;;;;3.30;1.80;;;;;;;17.92;63.90;98907.42;2188611;81;20919;-82
2022/07/11 12:19:54;;;;;;;3.87;1.80;;;;;;;17.79;65.80;98906.75;2188258;81;20897;-82
2022/07/11 12:22:54;;;;;;;3.90;2.08;;;;;;;17.67;66.16;98909.14;2187760;81;20925;-83
2022/07/11 12:25:54;;;;;;;2.52;1.20;;;;;;;17.98;68.31;98904.67;2187500;81;20937;-81
2022/07/11 12:28:55;;;;;;;1.22;0.90;;;;;;;18.50;66.31;98899.80;2187131;81;20924;-82
2022/07/11 12:31:55;;;;;;;2.22;1.00;;;;;;;18.77;65.88;98892.23;2187801;81;21287;-81
2022/07/11 12:34:56;;;;;;;6.17;1.30;;;;;;;19.25;65.83;98884.63;2188312;81;20967;-82
2022/07/11 12:37:56;;;;;;;2.05;1.10;;;;;;;19.33;63.03;98887.98;2188279;81;20936;-82
2022/07/11 12:40:56;;;;;;;10.43;2.75;;;;;;;19.11;63.67;98898.62;2188777;81;20925;-80
2022/07/11 12:47:16;;;;;;;1.20;1.10;;;;;;;19.06;63.95;98897.36;2188596;81;21323;-84
2022/07/11 12:50:16;;;;;;;3.83;1.20;;;;;;;19.44;63.62;98895.67;2188126;81;20944;-83
2022/07/11 12:53:16;;;;;;;2.52;1.40;;;;;;;19.61;62.54;98897.05;2187634;81;20960;-85
2022/07/11 12:56:17;;;;;;;6.00;1.25;;;;;;;19.62;61.85;98901.89;2188236;81;20968;-81
2022/07/11 12:59:17;;;;;;;2.22;1.67;;;;;;;19.51;60.51;98915.34;2188101;81;20968;-83
2022/07/11 13:02:18;;;;;;;2.20;1.80;;;;;;;19.67;62.44;98926.48;2188061;80;20960;-85
2022/07/11 13:05:19;;;;;;;3.42;1.50;;;;;;;20.08;57.30;98921.53;2188639;81;20932;-83
2022/07/11 13:09:03;;;;;;;3.40;2.08;;;;;;;20.45;54.67;98928.56;2188904;81;20953;-85
2022/07/11 13:11:19;;;;;;;2.70;2.25;;;;;;;20.38;50.70;98923.84;2188406;81;20920;-84
2022/07/11 13:17:38;;;;;;;8.98;3.87;;;;;;;20.47;50.80;98933.37;2187413;81;21774;-82
2022/07/11 13:20:39;;;;;;;4.03;1.98;;;;;;;20.47;57.44;98928.07;2187978;81;20987;-85
2022/07/11 13:23:39;;;;;;;1.70;1.60;;;;;;;20.66;57.37;98919.57;2187574;81;20925;-82
2022/07/11 13:26:39;;;;;;;2.65;1.55;;;;;;;20.90;57.33;98915.39;2187264;81;20916;-83
2022/07/11 13:29:40;;;;;;;1.65;0.80;;;;;;;20.84;56.06;98916.02;2187775;81;21313;-83
2022/07/11 13:32:40;;;;;;;2.12;1.15;;;;;;;20.73;54.00;98910.98;2187943;81;20909;-83
2022/07/11 13:35:40;;;;;;;1.20;1.10;;;;;;;20.80;55.16;98913.02;2187967;81;20995;-81
2022/07/11 13:38:41;;;;;;;2.75;1.00;;;;;;;20.91;54.09;98917.13;2188288;81;20897;-82
2022/07/11 13:41:41;;;;;;;2.05;1.10;;;;;;;20.63;52.77;98921.44;2189010;81;21308;-82
2022/07/11 13:44:42;;;;;;;4.08;2.33;;;;;;;20.15;53.18;98939.48;2188068;81;20984;-79
2022/07/11 13:47:42;;;;;;;1.75;1.30;;;;;;;19.51;54.45;98937.85;2188985;81;20957;-78
2022/07/11 13:50:44;;;;;;;5.70;2.02;;;;;;;19.23;56.43;98943.34;2189203;81;20952;-84
2022/07/11 13:53:43;;;;;;;4.58;2.30;;;;;;;19.32;56.02;98948.43;2189458;81;20917;-81
2022/07/11 13:56:43;;;;;;;1.25;0.93;;;;;;;19.59;56.62;98941.23;2188958;81;20948;-82
2022/07/11 13:59:44;;;;;;;1.12;0.95;;;;;;;19.78;55.81;98924.91;2189240;81;21253;-81
2022/07/11 14:02:44;;;;;;;2.92;0.90;;;;;;;19.83;56.38;98917.72;2172519;81;20985;-81
2022/07/11 14:05:45;;;;;;;3.05;1.00;;;;;;;19.82;54.24;98925.25;2172454;82;20992;-81
2022/07/11 14:08:45;;;;;;;1.35;1.00;;;;;;;19.83;55.22;98920.37;2171661;82;20942;-82
2022/07/11 14:11:45;;;;;;;2.20;1.22;;;;;;;20.06;53.09;98945.00;2171666;82;21383;-81
2022/07/11 14:14:46;;;;;;;2.58;1.17;;;;;;;20.07;52.74;98930.39;2171883;82;20945;-80
2022/07/11 14:17:46;;;;;;;1.72;1.12;;;;;;;19.86;51.66;98935.73;2171599;82;20980;-80
2022/07/11 14:20:47;;;;;;;1.02;0.80;;;;;;;19.79;53.05;98940.77;2171828;82;21329;-80
2022/07/11 14:23:47;;;;;;;1.75;1.25;;;;;;;19.79;50.60;98945.19;2171866;82;20949;-80